Airfield :
LOGIN :

Register | Disclaimer

   EN    FR    IT 

 










Legend :    VFR   Marginal VFR   IFR   Intensive IFR   Very Intensive IFR
Visi :
Ceiling :
>= 8 km
>= 3000ft
5 to 8 km
1000 to 3000 ft
1500m to 5 km
500 to 1000 ft
800 to 1500m
200 to 500 ft
< 800m
< 200 ft
Symbols :   Thunderstorms  Fog  Heavy snow  Heavy precipitations  Wind > 20 kt
SIGMETs :     Misc.  Thunderstorms  Icing  Turbulence  Mountain Waves  Volcanic Ashes







- Airport Elevation : 436 ft
- IATA code : BTS


LZIB - Bratislava

CURRENT METAR :
  • 101230Z 30017KT 9999 FEW035 SCT044 BKN057 07/M01 Q1013 NOSIG

EXPIRED METARs :
  • 101200Z 30020G34KT 270V330 9999 SCT035 BKN042 07/M02 Q1012 NOSIG
  • 101137Z 30017G29KT 270V330 9999 SCT033 BKN040 08/M01 Q1012
  • 101100Z 30020G32KT 9999 SCT032 BKN039 07/M01 Q1012 NOSIG
  • 101047Z 30021G32KT 270V330 9999 SCT032 BKN039 07/M01 Q1012
  • 101030Z 30019KT 270V330 9999 SCT032 BKN042 07/M01 Q1012 NOSIG
  • 101000Z 30018G28KT 270V330 9999 SCT028 07/M00 Q1012 NOSIG

TAF TAF LZIB
Valid from the 10 at 12:00 until the 11 at 12:00 UTC


101100Z 1012/1112 28012KT 9999 FEW040
TEMPO 1012/1016 30015G25KT
TEMPO 1016/1107 -SHRA BKN030
BECMG 1104/1106 -SN SCT020 BKN080
No reported NOTAMs for that airfield.



MET'MAP, your aeronautical weather chart ! - Copyright ORBIFLY December 2007 - Disclaimer

ORBIFLY MET'MAP TEAM :

Programming & Development : Alexandra Zaïnal
Concept & Development : Baudouin d'Aumeries
Co-Development & Prog : Marc-Olivier Méhu
Technical & hardware support : Manuel Goepfert

Contact : metmap@orbifly.com




SOURCES & CREDITS :

   NOAA